sensor_id;sensor_type;location;lat;lon;timestamp;pressure;altitude;pressure_sealevel;temperature;humidity
77662;BME280;67292;52.136;5.424;2023-04-01T00:01:13;99221.25;;;10.14;100.00
77662;BME280;67292;52.136;5.424;2023-04-01T00:03:40;99219.53;;;10.13;100.00
77662;BME280;67292;52.136;5.424;2023-04-01T00:06:12;99219.44;;;10.14;100.00
77662;BME280;67292;52.136;5.424;2023-04-01T00:08:39;99224.84;;;10.13;100.00
77662;BME280;67292;52.136;5.424;2023-04-01T00:11:06;99218.59;;;10.14;100.00
77662;BME280;67292;52.136;5.424;2023-04-01T00:13:33;99215.94;;;10.14;100.00
77662;BME280;67292;52.136;5.424;2023-04-01T00:15:59;99223.03;;;10.13;100.00
77662;BME280;67292;52.136;5.424;2023-04-01T00:18:29;99231.88;;;10.14;100.00
77662;BME280;67292;52.136;5.424;2023-04-01T00:20:56;99233.69;;;10.13;100.00
77662;BME280;67292;52.136;5.424;2023-04-01T00:23:22;99228.38;;;10.13;100.00
77662;BME280;67292;52.136;5.424;2023-04-01T00:25:49;99234.44;;;10.15;100.00
77662;BME280;67292;52.136;5.424;2023-04-01T00:28:18;99230.06;;;10.14;100.00
77662;BME280;67292;52.136;5.424;2023-04-01T00:30:45;99225.63;;;10.15;100.00
77662;BME280;67292;52.136;5.424;2023-04-01T00:33:12;99226.47;;;10.15;100.00
77662;BME280;67292;52.136;5.424;2023-04-01T00:35:39;99230.06;;;10.14;100.00
77662;BME280;67292;52.136;5.424;2023-04-01T00:38:06;99223.91;;;10.14;100.00
77662;BME280;67292;52.136;5.424;2023-04-01T00:40:37;99230.16;;;10.13;100.00
77662;BME280;67292;52.136;5.424;2023-04-01T00:43:11;99231.09;;;10.12;100.00
77662;BME280;67292;52.136;5.424;2023-04-01T00:45:41;99232.91;;;10.11;100.00
77662;BME280;67292;52.136;5.424;2023-04-01T00:50:50;99238.31;;;10.10;100.00
77662;BME280;67292;52.136;5.424;2023-04-01T00:53:19;99229.38;;;10.11;100.00
77662;BME280;67292;52.136;5.424;2023-04-01T00:56:22;99235.72;;;10.08;100.00
77662;BME280;67292;52.136;5.424;2023-04-01T00:58:57;99240.19;;;10.08;100.00
77662;BME280;67292;52.136;5.424;2023-04-01T01:01:25;99237.53;;;10.08;100.00
77662;BME280;67292;52.136;5.424;2023-04-01T01:03:52;99242.00;;;10.07;100.00
77662;BME280;67292;52.136;5.424;2023-04-01T01:06:46;99243.69;;;10.08;100.00
77662;BME280;67292;52.136;5.424;2023-04-01T01:12:14;99251.03;;;10.05;100.00
77662;BME280;67292;52.136;5.424;2023-04-01T01:17:43;99248.44;;;10.03;100.00
77662;BME280;67292;52.136;5.424;2023-04-01T01:26:31;99248.69;;;9.99;100.00
77662;BME280;67292;52.136;5.424;2023-04-01T01:35:16;99255.91;;;9.97;100.00
77662;BME280;67292;52.136;5.424;2023-04-01T01:37:47;99257.69;;;9.96;100.00
77662;BME280;67292;52.136;5.424;2023-04-01T01:40:16;99257.88;;;9.93;100.00
77662;BME280;67292;52.136;5.424;2023-04-01T01:42:49;99258.75;;;9.94;100.00
77662;BME280;67292;52.136;5.424;2023-04-01T01:45:21;99268.50;;;9.93;100.00
77662;BME280;67292;52.136;5.424;2023-04-01T01:47:51;99268.59;;;9.92;100.00
77662;BME280;67292;52.136;5.424;2023-04-01T01:50:19;99264.22;;;9.91;100.00
77662;BME280;67292;52.136;5.424;2023-04-01T01:52:47;99265.16;;;9.89;100.00
77662;BME280;67292;52.136;5.424;2023-04-01T01:55:34;99266.09;;;9.88;100.00
77662;BME280;67292;52.136;5.424;2023-04-01T01:58:12;99258.31;;;9.85;100.00
77662;BME280;67292;52.136;5.424;2023-04-01T02:00:45;99269.78;;;9.86;100.00
77662;BME280;67292;52.136;5.424;2023-04-01T02:03:15;99259.25;;;9.84;100.00
77662;BME280;67292;52.136;5.424;2023-04-01T02:05:44;99263.81;;;9.82;100.00
77662;BME280;67292;52.136;5.424;2023-04-01T02:08:25;99270.06;;;9.81;100.00
77662;BME280;67292;52.136;5.424;2023-04-01T02:11:10;99271.88;;;9.81;100.00
77662;BME280;67292;52.136;5.424;2023-04-01T02:13:54;99271.16;;;9.77;100.00
77662;BME280;67292;52.136;5.424;2023-04-01T02:16:28;99276.56;;;9.76;100.00
77662;BME280;67292;52.136;5.424;2023-04-01T02:18:59;99277.63;;;9.73;100.00
77662;BME280;67292;52.136;5.424;2023-04-01T02:21:32;99279.41;;;9.73;100.00
77662;BME280;67292;52.136;5.424;2023-04-01T02:24:02;99279.50;;;9.71;100.00
77662;BME280;67292;52.136;5.424;2023-04-01T02:26:30;99276.91;;;9.70;100.00
77662;BME280;67292;52.136;5.424;2023-04-01T02:29:00;99277.88;;;9.69;100.00
77662;BME280;67292;52.136;5.424;2023-04-01T02:31:28;99277.94;;;9.67;100.00
77662;BME280;67292;52.136;5.424;2023-04-01T02:33:56;99284.19;;;9.66;100.00
77662;BME280;67292;52.136;5.424;2023-04-01T02:36:23;99280.59;;;9.67;100.00
77662;BME280;67292;52.136;5.424;2023-04-01T02:38:52;99281.63;;;9.65;100.00
77662;BME280;67292;52.136;5.424;2023-04-01T02:41:20;99290.63;;;9.62;100.00
77662;BME280;67292;52.136;5.424;2023-04-01T02:43:47;99286.25;;;9.61;100.00
77662;BME280;67292;52.136;5.424;2023-04-01T02:46:14;99286.25;;;9.61;100.00
77662;BME280;67292;52.136;5.424;2023-04-01T02:48:42;99291.72;;;9.58;100.00
77662;BME280;67292;52.136;5.424;2023-04-01T02:51:09;99294.38;;;9.58;100.00
77662;BME280;67292;52.136;5.424;2023-04-01T02:53:36;99299.78;;;9.57;100.00
77662;BME280;67292;52.136;5.424;2023-04-01T02:56:03;99290.97;;;9.56;100.00
77662;BME280;67292;52.136;5.424;2023-04-01T02:58:29;99290.97;;;9.56;100.00
77662;BME280;67292;52.136;5.424;2023-04-01T03:00:56;99291.81;;;9.57;100.00
77662;BME280;67292;52.136;5.424;2023-04-01T03:03:22;99298.06;;;9.56;100.00
77662;BME280;67292;52.136;5.424;2023-04-01T03:05:49;99299.84;;;9.55;100.00
77662;BME280;67292;52.136;5.424;2023-04-01T03:08:16;99300.72;;;9.56;100.00
77662;BME280;67292;52.136;5.424;2023-04-01T03:10:42;99296.34;;;9.55;100.00
77662;BME280;67292;52.136;5.424;2023-04-01T03:13:09;99307.91;;;9.53;100.00
77662;BME280;67292;52.136;5.424;2023-04-01T03:15:35;99306.19;;;9.52;100.00
77662;BME280;67292;52.136;5.424;2023-04-01T03:18:02;99313.22;;;9.53;100.00
77662;BME280;67292;52.136;5.424;2023-04-01T03:20:29;99319.38;;;9.54;100.00
77662;BME280;67292;52.136;5.424;2023-04-01T03:22:56;99308.09;;;9.50;100.00
77662;BME280;67292;52.136;5.424;2023-04-01T03:25:22;99320.44;;;9.51;100.00
77662;BME280;67292;52.136;5.424;2023-04-01T03:27:49;99323.91;;;9.52;100.00
77662;BME280;67292;52.136;5.424;2023-04-01T03:30:16;99322.97;;;9.53;100.00
77662;BME280;67292;52.136;5.424;2023-04-01T03:32:43;99322.97;;;9.53;100.00
77662;BME280;67292;52.136;5.424;2023-04-01T03:35:09;99325.56;;;9.55;100.00
77662;BME280;67292;52.136;5.424;2023-04-01T03:37:36;99337.13;;;9.53;100.00
77662;BME280;67292;52.136;5.424;2023-04-01T03:40:04;99337.97;;;9.54;100.00
77662;BME280;67292;52.136;5.424;2023-04-01T03:42:30;99339.69;;;9.55;100.00
77662;BME280;67292;52.136;5.424;2023-04-01T03:44:58;99349.38;;;9.56;100.00
77662;BME280;67292;52.136;5.424;2023-04-01T03:47:25;99344.91;;;9.57;100.00
77662;BME280;67292;52.136;5.424;2023-04-01T03:49:51;99344.84;;;9.58;100.00
77662;BME280;67292;52.136;5.424;2023-04-01T03:52:18;99350.16;;;9.58;100.00
77662;BME280;67292;52.136;5.424;2023-04-01T03:54:44;99350.16;;;9.58;100.00
77662;BME280;67292;52.136;5.424;2023-04-01T03:57:11;99351.88;;;9.59;100.00
77662;BME280;67292;52.136;5.424;2023-04-01T03:59:38;99355.31;;;9.61;100.00
77662;BME280;67292;52.136;5.424;2023-04-01T04:02:04;99357.03;;;9.62;100.00
77662;BME280;67292;52.136;5.424;2023-04-01T04:04:31;99359.69;;;9.62;100.00
77662;BME280;67292;52.136;5.424;2023-04-01T04:06:58;99352.53;;;9.63;100.00
77662;BME280;67292;52.136;5.424;2023-04-01T04:09:25;99362.22;;;9.64;100.00
77662;BME280;67292;52.136;5.424;2023-04-01T04:11:51;99366.59;;;9.65;100.00
77662;BME280;67292;52.136;5.424;2023-04-01T04:14:18;99370.13;;;9.65;100.00
77662;BME280;67292;52.136;5.424;2023-04-01T04:16:45;99374.50;;;9.66;100.00
77662;BME280;67292;52.136;5.424;2023-04-01T04:19:11;99374.50;;;9.66;100.00
77662;BME280;67292;52.136;5.424;2023-04-01T04:21:39;99377.06;;;9.68;100.00
77662;BME280;67292;52.136;5.424;2023-04-01T04:24:06;99378.84;;;9.67;100.00
77662;BME280;67292;52.136;5.424;2023-04-01T04:26:33;99383.22;;;9.68;100.00
77662;BME280;67292;52.136;5.424;2023-04-01T04:28:59;99390.25;;;9.69;100.00
77662;BME280;67292;52.136;5.424;2023-04-01T04:31:26;99392.06;;;9.69;100.00
77662;BME280;67292;52.136;5.424;2023-04-01T04:33:53;99395.56;;;9.69;100.00
77662;BME280;67292;52.136;5.424;2023-04-01T04:36:21;99396.44;;;9.70;100.00
77662;BME280;67292;52.136;5.424;2023-04-01T04:38:48;99397.28;;;9.70;100.00
77662;BME280;67292;52.136;5.424;2023-04-01T04:41:16;99406.03;;;9.72;100.00
77662;BME280;67292;52.136;5.424;2023-04-01T04:43:53;99405.09;;;9.73;100.00
77662;BME280;67292;52.136;5.424;2023-04-01T04:46:20;99406.91;;;9.73;100.00
77662;BME280;67292;52.136;5.424;2023-04-01T04:48:47;99416.56;;;9.74;100.00
77662;BME280;67292;52.136;5.424;2023-04-01T04:51:19;99414.69;;;9.76;100.00
77662;BME280;67292;52.136;5.424;2023-04-01T04:53:46;99417.34;;;9.76;100.00
77662;BME280;67292;52.136;5.424;2023-04-01T04:56:16;99428.75;;;9.78;100.00
77662;BME280;67292;52.136;5.424;2023-04-01T04:58:43;99434.91;;;9.78;100.00
77662;BME280;67292;52.136;5.424;2023-04-01T05:01:12;99433.03;;;9.80;100.00
77662;BME280;67292;52.136;5.424;2023-04-01T05:03:40;99440.16;;;9.80;100.00
77662;BME280;67292;52.136;5.424;2023-04-01T05:06:09;99440.94;;;9.82;100.00
77662;BME280;67292;52.136;5.424;2023-04-01T05:08:36;99445.19;;;9.84;100.00
77662;BME280;67292;52.136;5.424;2023-04-01T05:11:03;99455.81;;;9.84;100.00
77662;BME280;67292;52.136;5.424;2023-04-01T05:13:30;99461.06;;;9.86;100.00
77662;BME280;67292;52.136;5.424;2023-04-01T05:15:57;99461.91;;;9.86;100.00
77662;BME280;67292;52.136;5.424;2023-04-01T05:18:23;99468.97;;;9.87;100.00
77662;BME280;67292;52.136;5.424;2023-04-01T05:20:52;99462.78;;;9.87;100.00
77662;BME280;67292;52.136;5.424;2023-04-01T05:23:21;99474.19;;;9.89;100.00
77662;BME280;67292;52.136;5.424;2023-04-01T05:25:49;99475.06;;;9.89;100.00
77662;BME280;67292;52.136;5.424;2023-04-01T05:28:17;99481.22;;;9.90;100.00
77662;BME280;67292;52.136;5.424;2023-04-01T05:30:44;99482.09;;;9.91;100.00
77662;BME280;67292;52.136;5.424;2023-04-01T05:33:12;99484.75;;;9.91;100.00
77662;BME280;67292;52.136;5.424;2023-04-01T05:35:40;99497.09;;;9.92;100.00
77662;BME280;67292;52.136;5.424;2023-04-01T05:38:07;99498.03;;;9.91;100.00
77662;BME280;67292;52.136;5.424;2023-04-01T05:40:33;99498.03;;;9.91;100.00
77662;BME280;67292;52.136;5.424;2023-04-01T05:43:00;99503.25;;;9.92;100.00
77662;BME280;67292;52.136;5.424;2023-04-01T05:45:27;99508.59;;;9.92;100.00
77662;BME280;67292;52.136;5.424;2023-04-01T05:47:54;99520.94;;;9.93;100.00
77662;BME280;67292;52.136;5.424;2023-04-01T05:50:20;99520.06;;;9.93;100.00
77662;BME280;67292;52.136;5.424;2023-04-01T05:52:47;99520.84;;;9.95;100.00
77662;BME280;67292;52.136;5.424;2023-04-01T05:55:14;99520.84;;;9.95;100.00
77662;BME280;67292;52.136;5.424;2023-04-01T05:57:40;99521.69;;;9.95;100.00
77662;BME280;67292;52.136;5.424;2023-04-01T06:00:07;99522.47;;;9.97;100.00
77662;BME280;67292;52.136;5.424;2023-04-01T06:02:34;99518.88;;;9.98;100.00
77662;BME280;67292;52.136;5.424;2023-04-01T06:05:17;99533.88;;;9.99;100.00
77662;BME280;67292;52.136;5.424;2023-04-01T06:07:45;99529.41;;;10.00;100.00
77662;BME280;67292;52.136;5.424;2023-04-01T06:10:18;99543.56;;;10.00;100.00
77662;BME280;67292;52.136;5.424;2023-04-01T06:13:10;99549.75;;;10.01;100.00
77662;BME280;67292;52.136;5.424;2023-04-01T06:15:49;99548.81;;;10.02;100.00
77662;BME280;67292;52.136;5.424;2023-04-01T06:18:43;99554.03;;;10.03;100.00
77662;BME280;67292;52.136;5.424;2023-04-01T06:21:28;99562.00;;;10.03;100.00
77662;BME280;67292;52.136;5.424;2023-04-01T06:27:46;99567.34;;;10.03;100.00
77662;BME280;67292;52.136;5.424;2023-04-01T06:33:25;99572.56;;;10.05;100.00
77662;BME280;67292;52.136;5.424;2023-04-01T06:41:23;99590.13;;;10.07;100.00
77662;BME280;67292;52.136;5.424;2023-04-01T06:43:59;99582.94;;;10.09;100.00
77662;BME280;67292;52.136;5.424;2023-04-01T06:49:36;99599.75;;;10.10;100.00
77662;BME280;67292;52.136;5.424;2023-04-01T06:52:31;99608.59;;;10.10;100.00
77662;BME280;67292;52.136;5.424;2023-04-01T06:55:23;99613.75;;;10.13;100.00
77662;BME280;67292;52.136;5.424;2023-04-01T06:57:56;99618.19;;;10.13;100.00
77662;BME280;67292;52.136;5.424;2023-04-01T07:00:35;99622.50;;;10.15;100.00
77662;BME280;67292;52.136;5.424;2023-04-01T07:06:04;99631.19;;;10.19;100.00
77662;BME280;67292;52.136;5.424;2023-04-01T07:08:37;99626.81;;;10.18;100.00
77662;BME280;67292;52.136;5.424;2023-04-01T07:11:11;99630.19;;;10.21;100.00
77662;BME280;67292;52.136;5.424;2023-04-01T07:16:28;99639.09;;;10.20;100.00
77662;BME280;67292;52.136;5.424;2023-04-01T07:22:01;99655.50;;;10.29;100.00
77662;BME280;67292;52.136;5.424;2023-04-01T07:24:42;99665.19;;;10.30;100.00
77662;BME280;67292;52.136;5.424;2023-04-01T07:27:12;99665.19;;;10.30;100.00
77662;BME280;67292;52.136;5.424;2023-04-01T07:29:40;99663.41;;;10.30;100.00
77662;BME280;67292;52.136;5.424;2023-04-01T07:48:30;99698.34;;;10.40;100.00
77662;BME280;67292;52.136;5.424;2023-04-01T07:51:03;99699.19;;;10.40;100.00
77662;BME280;67292;52.136;5.424;2023-04-01T07:53:46;99699.19;;;10.40;100.00
77662;BME280;67292;52.136;5.424;2023-04-01T07:59:23;99719.38;;;10.44;100.00
77662;BME280;67292;52.136;5.424;2023-04-01T08:07:26;99726.50;;;10.44;100.00
77662;BME280;67292;52.136;5.424;2023-04-01T08:16:01;99738.63;;;10.49;100.00
77662;BME280;67292;52.136;5.424;2023-04-01T08:21:34;99743.00;;;10.50;100.00
77662;BME280;67292;52.136;5.424;2023-04-01T08:24:22;99753.56;;;10.52;100.00
77662;BME280;67292;52.136;5.424;2023-04-01T08:26:59;99757.00;;;10.54;100.00
77662;BME280;67292;52.136;5.424;2023-04-01T08:29:41;99770.31;;;10.54;100.00
77662;BME280;67292;52.136;5.424;2023-04-01T08:32:36;99772.97;;;10.54;100.00
77662;BME280;67292;52.136;5.424;2023-04-01T08:35:37;99774.75;;;10.53;100.00
77662;BME280;67292;52.136;5.424;2023-04-01T08:38:17;99778.28;;;10.54;100.00
77662;BME280;67292;52.136;5.424;2023-04-01T08:40:58;99781.81;;;10.54;100.00
77662;BME280;67292;52.136;5.424;2023-04-01T08:46:29;99796.75;;;10.57;100.00
77662;BME280;67292;52.136;5.424;2023-04-01T08:51:58;99803.72;;;10.59;100.00
77662;BME280;67292;52.136;5.424;2023-04-01T09:00:31;99817.25;;;10.72;100.00
77662;BME280;67292;52.136;5.424;2023-04-01T09:03:20;99813.56;;;10.75;100.00
77662;BME280;67292;52.136;5.424;2023-04-01T09:06:12;99823.13;;;10.79;100.00
77662;BME280;67292;52.136;5.424;2023-04-01T09:09:11;99823.91;;;10.81;100.00
77662;BME280;67292;52.136;5.424;2023-04-01T09:15:20;99828.97;;;10.85;100.00
77662;BME280;67292;52.136;5.424;2023-04-01T09:29:44;99841.72;;;10.96;100.00
77662;BME280;67292;52.136;5.424;2023-04-01T09:32:42;99844.31;;;10.97;100.00
77662;BME280;67292;52.136;5.424;2023-04-01T09:38:42;99857.47;;;11.01;100.00
77662;BME280;67292;52.136;5.424;2023-04-01T09:41:30;99863.31;;;11.07;100.00
77662;BME280;67292;52.136;5.424;2023-04-01T09:44:06;99864.81;;;11.13;100.00
77662;BME280;67292;52.136;5.424;2023-04-01T09:49:53;99867.03;;;11.38;100.00
77662;BME280;67292;52.136;5.424;2023-04-01T09:52:48;99866.53;;;11.47;100.00
77662;BME280;67292;52.136;5.424;2023-04-01T10:16:03;99887.06;;;12.42;100.00
77662;BME280;67292;52.136;5.424;2023-04-01T10:24:45;99892.88;;;12.64;100.00
77662;BME280;67292;52.136;5.424;2023-04-01T10:27:28;99893.53;;;12.68;100.00
77662;BME280;67292;52.136;5.424;2023-04-01T10:30:38;99894.59;;;12.65;100.00
77662;BME280;67292;52.136;5.424;2023-04-01T10:33:33;99900.28;;;12.59;100.00
77662;BME280;67292;52.136;5.424;2023-04-01T10:56:29;99921.09;;;12.68;100.00
77662;BME280;67292;52.136;5.424;2023-04-01T11:11:33;99927.47;;;12.82;100.00
77662;BME280;67292;52.136;5.424;2023-04-01T11:31:39;99962.16;;;12.34;100.00
77662;BME280;67292;52.136;5.424;2023-04-01T11:40:36;99975.44;;;12.36;100.00
77662;BME280;67292;52.136;5.424;2023-04-01T11:46:11;99979.75;;;12.38;100.00
77662;BME280;67292;52.136;5.424;2023-04-01T11:57:38;100001.16;;;12.21;100.00
77662;BME280;67292;52.136;5.424;2023-04-01T12:05:58;100011.13;;;12.18;100.00
77662;BME280;67292;52.136;5.424;2023-04-01T12:08:31;100014.66;;;12.18;100.00
77662;BME280;67292;52.136;5.424;2023-04-01T12:11:12;100010.97;;;12.21;100.00
77662;BME280;67292;52.136;5.424;2023-04-01T12:13:59;100026.84;;;12.22;100.00
77662;BME280;67292;52.136;5.424;2023-04-01T12:16:46;100019.84;;;12.21;100.00
77662;BME280;67292;52.136;5.424;2023-04-01T12:33:29;100047.59;;;12.17;100.00
77662;BME280;67292;52.136;5.424;2023-04-01T12:36:35;100053.72;;;12.19;100.00
77662;BME280;67292;52.136;5.424;2023-04-01T12:51:20;100060.56;;;12.40;100.00
77662;BME280;67292;52.136;5.424;2023-04-01T12:59:32;100072.03;;;12.58;100.00
77662;BME280;67292;52.136;5.424;2023-04-01T13:02:18;100068.50;;;12.58;100.00
77662;BME280;67292;52.136;5.424;2023-04-01T13:11:08;100079.34;;;12.55;100.00
77662;BME280;67292;52.136;5.424;2023-04-01T13:19:47;100095.25;;;12.40;100.00
77662;BME280;67292;52.136;5.424;2023-04-01T13:28:52;100120.06;;;12.25;100.00
77662;BME280;67292;52.136;5.424;2023-04-01T13:31:35;100128.31;;;12.21;100.00
77662;BME280;67292;52.136;5.424;2023-04-01T13:34:31;100127.75;;;12.14;100.00
77662;BME280;67292;52.136;5.424;2023-04-01T13:47:57;100127.16;;;12.09;100.00
77662;BME280;67292;52.136;5.424;2023-04-01T13:58:37;100143.38;;;12.04;100.00
77662;BME280;67292;52.136;5.424;2023-04-01T14:02:13;100147.00;;;12.03;100.00
77662;BME280;67292;52.136;5.424;2023-04-01T14:07:13;100161.34;;;12.01;100.00
77662;BME280;67292;52.136;5.424;2023-04-01T14:09:54;100174.06;;;11.96;100.00
77662;BME280;67292;52.136;5.424;2023-04-01T14:12:31;100176.19;;;11.89;100.00
77662;BME280;67292;52.136;5.424;2023-04-01T14:18:20;100186.66;;;11.75;100.00
77662;BME280;67292;52.136;5.424;2023-04-01T14:23:51;100196.94;;;11.64;100.00
77662;BME280;67292;52.136;5.424;2023-04-01T14:26:53;100199.75;;;11.61;100.00
77662;BME280;67292;52.136;5.424;2023-04-01T14:29:38;100206.09;;;11.58;100.00
77662;BME280;67292;52.136;5.424;2023-04-01T14:38:17;100213.19;;;11.41;100.00
77662;BME280;67292;52.136;5.424;2023-04-01T14:41:21;100222.22;;;11.37;100.00
77662;BME280;67292;52.136;5.424;2023-04-01T14:55:59;100256.72;;;11.21;100.00
77662;BME280;67292;52.136;5.424;2023-04-01T14:58:42;100256.88;;;11.18;100.00
77662;BME280;67292;52.136;5.424;2023-04-01T15:15:50;100294.22;;;11.16;100.00
77662;BME280;67292;52.136;5.424;2023-04-01T15:21:39;100306.53;;;11.19;100.00
77662;BME280;67292;52.136;5.424;2023-04-01T15:24:56;100308.19;;;11.21;100.00
77662;BME280;67292;52.136;5.424;2023-04-01T15:30:29;100326.72;;;11.24;100.00
77662;BME280;67292;52.136;5.424;2023-04-01T15:33:09;100326.78;;;11.23;100.00
77662;BME280;67292;52.136;5.424;2023-04-01T15:36:16;100329.44;;;11.23;100.00
77662;BME280;67292;52.136;5.424;2023-04-01T15:41:55;100339.28;;;11.21;100.00
77662;BME280;67292;52.136;5.424;2023-04-01T15:59:31;100378.16;;;11.05;100.00
77662;BME280;67292;52.136;5.424;2023-04-01T16:01:59;100387.16;;;11.02;100.00
77662;BME280;67292;52.136;5.424;2023-04-01T16:07:48;100400.94;;;10.91;100.00
77662;BME280;67292;52.136;5.424;2023-04-01T16:10:52;100401.94;;;10.89;100.00
77662;BME280;67292;52.136;5.424;2023-04-01T16:21:33;100427.44;;;10.73;100.00
77662;BME280;67292;52.136;5.424;2023-04-01T16:30:25;100444.72;;;10.63;100.00
77662;BME280;67292;52.136;5.424;2023-04-01T16:33:03;100448.44;;;10.58;100.00
77662;BME280;67292;52.136;5.424;2023-04-01T16:35:57;100456.50;;;10.57;100.00
77662;BME280;67292;52.136;5.424;2023-04-01T16:43:53;100471.19;;;10.44;100.00
77662;BME280;67292;52.136;5.424;2023-04-01T16:46:56;100478.41;;;10.40;100.00
77662;BME280;67292;52.136;5.424;2023-04-01T16:49:53;100486.44;;;10.39;100.00
77662;BME280;67292;52.136;5.424;2023-04-01T16:55:42;100500.88;;;10.33;100.00
77662;BME280;67292;52.136;5.424;2023-04-01T16:58:20;100508.28;;;10.25;100.00
77662;BME280;67292;52.136;5.424;2023-04-01T17:00:55;100520.00;;;10.19;100.00
77662;BME280;67292;52.136;5.424;2023-04-01T17:03:37;100516.69;;;10.13;100.00
77662;BME280;67292;52.136;5.424;2023-04-01T17:06:27;100536.38;;;10.07;100.00
77662;BME280;67292;52.136;5.424;2023-04-01T17:40:35;100606.63;;;9.75;100.00
77662;BME280;67292;52.136;5.424;2023-04-01T17:43:30;100615.50;;;9.74;100.00
77662;BME280;67292;52.136;5.424;2023-04-01T18:13:46;100698.69;;;9.50;100.00
77662;BME280;67292;52.136;5.424;2023-04-01T18:16:33;100700.50;;;9.49;100.00
77662;BME280;67292;52.136;5.424;2023-04-01T18:19:26;100715.56;;;9.49;100.00
77662;BME280;67292;52.136;5.424;2023-04-01T18:22:09;100718.28;;;9.46;100.00
77662;BME280;67292;52.136;5.424;2023-04-01T18:24:57;100715.72;;;9.43;100.00
77662;BME280;67292;52.136;5.424;2023-04-01T18:27:32;100730.00;;;9.40;100.00
77662;BME280;67292;52.136;5.424;2023-04-01T18:30:15;100732.66;;;9.40;100.00
77662;BME280;67292;52.136;5.424;2023-04-01T18:35:27;100750.53;;;9.34;100.00
77662;BME280;67292;52.136;5.424;2023-04-01T18:38:20;100752.38;;;9.32;100.00
77662;BME280;67292;52.136;5.424;2023-04-01T18:41:14;100757.78;;;9.29;100.00
77662;BME280;67292;52.136;5.424;2023-04-01T18:54:30;100791.63;;;9.21;100.00
77662;BME280;67292;52.136;5.424;2023-04-01T18:57:08;100800.50;;;9.20;100.00
77662;BME280;67292;52.136;5.424;2023-04-01T18:59:55;100804.97;;;9.19;100.00
77662;BME280;67292;52.136;5.424;2023-04-01T19:02:34;100815.59;;;9.19;100.00
77662;BME280;67292;52.136;5.424;2023-04-01T19:05:07;100824.53;;;9.17;100.00
77662;BME280;67292;52.136;5.424;2023-04-01T19:08:42;100829.88;;;9.15;100.00
77662;BME280;67292;52.136;5.424;2023-04-01T19:10:37;100833.47;;;9.12;100.00
77662;BME280;67292;52.136;5.424;2023-04-01T19:19:07;100849.53;;;9.08;100.00
77662;BME280;67292;52.136;5.424;2023-04-01T19:21:44;100854.94;;;9.05;100.00
77662;BME280;67292;52.136;5.424;2023-04-01T19:27:48;100867.41;;;9.01;100.00
77662;BME280;67292;52.136;5.424;2023-04-01T19:30:31;100879.88;;;8.98;100.00
77662;BME280;67292;52.136;5.424;2023-04-01T19:36:21;100896.84;;;8.92;100.00
77662;BME280;67292;52.136;5.424;2023-04-01T19:39:23;100896.91;;;8.89;100.00
77662;BME280;67292;52.136;5.424;2023-04-01T19:42:09;100904.09;;;8.86;100.00
77662;BME280;67292;52.136;5.424;2023-04-01T19:51:03;100925.44;;;8.81;100.00
77662;BME280;67292;52.136;5.424;2023-04-01T19:54:13;100924.56;;;8.81;100.00
77662;BME280;67292;52.136;5.424;2023-04-01T19:56:52;100935.25;;;8.77;100.00
77662;BME280;67292;52.136;5.424;2023-04-01T20:04:43;100956.63;;;8.71;100.00
77662;BME280;67292;52.136;5.424;2023-04-01T20:07:21;100964.66;;;8.68;100.00
77662;BME280;67292;52.136;5.424;2023-04-01T20:12:58;100979.84;;;8.63;100.00
77662;BME280;67292;52.136;5.424;2023-04-01T20:16:00;100979.88;;;8.62;100.00
77662;BME280;67292;52.136;5.424;2023-04-01T20:18:48;100980.84;;;8.58;100.00
77662;BME280;67292;52.136;5.424;2023-04-01T20:21:33;100993.16;;;8.60;100.00
77662;BME280;67292;52.136;5.424;2023-04-01T20:26:58;101003.06;;;8.54;100.00
77662;BME280;67292;52.136;5.424;2023-04-01T20:35:19;101020.88;;;8.46;100.00
77662;BME280;67292;52.136;5.424;2023-04-01T20:38:06;101028.88;;;8.44;100.00
77662;BME280;67292;52.136;5.424;2023-04-01T20:40:42;101034.28;;;8.41;100.00
77662;BME280;67292;52.136;5.424;2023-04-01T20:43:24;101042.28;;;8.38;100.00
77662;BME280;67292;52.136;5.424;2023-04-01T20:45:58;101042.34;;;8.35;100.00
77662;BME280;67292;52.136;5.424;2023-04-01T20:51:22;101073.38;;;8.31;100.00
77662;BME280;67292;52.136;5.424;2023-04-01T20:57:06;101075.19;;;8.26;100.00
77662;BME280;67292;52.136;5.424;2023-04-01T21:03:34;101072.56;;;8.25;100.00
77662;BME280;67292;52.136;5.424;2023-04-01T21:08:24;101093.78;;;8.25;100.00
77662;BME280;67292;52.136;5.424;2023-04-01T21:11:04;101102.66;;;8.22;100.00
77662;BME280;67292;52.136;5.424;2023-04-01T21:13:46;101110.66;;;8.21;100.00
77662;BME280;67292;52.136;5.424;2023-04-01T21:22:01;101123.16;;;8.13;100.00
77662;BME280;67292;52.136;5.424;2023-04-01T21:28:01;101138.31;;;8.07;100.00
77662;BME280;67292;52.136;5.424;2023-04-01T21:36:35;101155.25;;;7.99;100.00
77662;BME280;67292;52.136;5.424;2023-04-01T21:41:51;101173.03;;;7.91;100.00
77662;BME280;67292;52.136;5.424;2023-04-01T21:50:19;101189.97;;;7.84;100.00
77662;BME280;67292;52.136;5.424;2023-04-01T21:56:09;101205.06;;;7.79;100.00
77662;BME280;67292;52.136;5.424;2023-04-01T22:07:25;101216.66;;;7.72;100.00
77662;BME280;67292;52.136;5.424;2023-04-01T22:12:48;101232.63;;;7.67;100.00
77662;BME280;67292;52.136;5.424;2023-04-01T22:15:29;101237.94;;;7.65;100.00
77662;BME280;67292;52.136;5.424;2023-04-01T22:18:15;101236.25;;;7.61;100.00
77662;BME280;67292;52.136;5.424;2023-04-01T22:21:03;101252.16;;;7.58;100.00
77662;BME280;67292;52.136;5.424;2023-04-01T22:23:45;101253.09;;;7.56;100.00
77662;BME280;67292;52.136;5.424;2023-04-01T22:26:39;101259.34;;;7.50;100.00
77662;BME280;67292;52.136;5.424;2023-04-01T22:32:10;101271.72;;;7.48;100.00
77662;BME280;67292;52.136;5.424;2023-04-01T22:35:13;101263.84;;;7.45;100.00